sensor_id;sensor_type;location;lat;lon;timestamp;temperature;humidity
21823;DHT22;11074;48.596;9.238;2023-03-21T00:01:55;9.90;99.90
21823;DHT22;11074;48.596;9.238;2023-03-21T00:04:23;9.90;99.90
21823;DHT22;11074;48.596;9.238;2023-03-21T00:06:50;9.90;99.90
21823;DHT22;11074;48.596;9.238;2023-03-21T00:09:16;9.80;99.90
21823;DHT22;11074;48.596;9.238;2023-03-21T00:11:42;9.90;99.90
21823;DHT22;11074;48.596;9.238;2023-03-21T00:14:08;9.80;99.90
21823;DHT22;11074;48.596;9.238;2023-03-21T00:16:39;9.80;99.90
21823;DHT22;11074;48.596;9.238;2023-03-21T00:19:05;9.80;99.90
21823;DHT22;11074;48.596;9.238;2023-03-21T00:21:32;9.80;99.90
21823;DHT22;11074;48.596;9.238;2023-03-21T00:23:59;9.80;99.90
21823;DHT22;11074;48.596;9.238;2023-03-21T00:26:25;9.80;99.90
21823;DHT22;11074;48.596;9.238;2023-03-21T00:28:51;9.80;99.90
21823;DHT22;11074;48.596;9.238;2023-03-21T00:31:17;9.80;99.90
21823;DHT22;11074;48.596;9.238;2023-03-21T00:33:43;9.80;99.90
21823;DHT22;11074;48.596;9.238;2023-03-21T00:36:10;9.80;99.90
21823;DHT22;11074;48.596;9.238;2023-03-21T00:38:37;9.80;99.90
21823;DHT22;11074;48.596;9.238;2023-03-21T00:41:07;9.80;99.90
21823;DHT22;11074;48.596;9.238;2023-03-21T00:43:35;9.80;99.90
21823;DHT22;11074;48.596;9.238;2023-03-21T00:46:02;9.70;99.90
21823;DHT22;11074;48.596;9.238;2023-03-21T00:48:28;9.70;99.90
21823;DHT22;11074;48.596;9.238;2023-03-21T00:50:55;9.70;99.90
21823;DHT22;11074;48.596;9.238;2023-03-21T00:53:23;9.70;99.90
21823;DHT22;11074;48.596;9.238;2023-03-21T00:55:49;9.80;99.90
21823;DHT22;11074;48.596;9.238;2023-03-21T00:58:16;9.80;99.90
21823;DHT22;11074;48.596;9.238;2023-03-21T01:00:43;9.80;99.90
21823;DHT22;11074;48.596;9.238;2023-03-21T01:03:13;9.70;99.90
21823;DHT22;11074;48.596;9.238;2023-03-21T01:05:45;9.70;99.90
21823;DHT22;11074;48.596;9.238;2023-03-21T01:08:37;9.70;99.90
21823;DHT22;11074;48.596;9.238;2023-03-21T01:11:08;9.60;99.90
21823;DHT22;11074;48.596;9.238;2023-03-21T01:13:35;9.60;99.90
21823;DHT22;11074;48.596;9.238;2023-03-21T01:16:03;9.60;99.90
21823;DHT22;11074;48.596;9.238;2023-03-21T01:18:31;9.60;99.90
21823;DHT22;11074;48.596;9.238;2023-03-21T01:20:59;9.60;99.90
21823;DHT22;11074;48.596;9.238;2023-03-21T01:23:27;9.60;99.90
21823;DHT22;11074;48.596;9.238;2023-03-21T01:25:55;9.60;99.90
21823;DHT22;11074;48.596;9.238;2023-03-21T01:28:24;9.60;99.90
21823;DHT22;11074;48.596;9.238;2023-03-21T01:30:51;9.60;99.90
21823;DHT22;11074;48.596;9.238;2023-03-21T01:33:18;9.60;99.90
21823;DHT22;11074;48.596;9.238;2023-03-21T01:35:44;9.60;99.90
21823;DHT22;11074;48.596;9.238;2023-03-21T01:38:11;9.60;99.90
21823;DHT22;11074;48.596;9.238;2023-03-21T01:40:38;9.60;99.90
21823;DHT22;11074;48.596;9.238;2023-03-21T01:49:29;9.60;99.90
21823;DHT22;11074;48.596;9.238;2023-03-21T01:52:19;9.50;99.90
21823;DHT22;11074;48.596;9.238;2023-03-21T01:54:51;9.50;99.90
21823;DHT22;11074;48.596;9.238;2023-03-21T01:57:26;9.50;99.90
21823;DHT22;11074;48.596;9.238;2023-03-21T01:59:57;9.40;99.90
21823;DHT22;11074;48.596;9.238;2023-03-21T02:02:30;9.40;99.90
21823;DHT22;11074;48.596;9.238;2023-03-21T02:04:57;9.30;99.90
21823;DHT22;11074;48.596;9.238;2023-03-21T02:07:32;9.40;99.90
21823;DHT22;11074;48.596;9.238;2023-03-21T02:10:04;9.40;99.90
21823;DHT22;11074;48.596;9.238;2023-03-21T02:12:35;9.40;99.90
21823;DHT22;11074;48.596;9.238;2023-03-21T02:15:03;9.40;99.90
21823;DHT22;11074;48.596;9.238;2023-03-21T02:18:02;9.40;99.90
21823;DHT22;11074;48.596;9.238;2023-03-21T02:20:53;9.40;99.90
21823;DHT22;11074;48.596;9.238;2023-03-21T02:29:49;9.40;99.90
21823;DHT22;11074;48.596;9.238;2023-03-21T02:35:50;9.40;99.90
21823;DHT22;11074;48.596;9.238;2023-03-21T02:38:27;9.50;99.90
21823;DHT22;11074;48.596;9.238;2023-03-21T02:44:02;9.50;99.90
21823;DHT22;11074;48.596;9.238;2023-03-21T02:47:00;9.50;99.90
21823;DHT22;11074;48.596;9.238;2023-03-21T02:49:42;9.50;99.90
21823;DHT22;11074;48.596;9.238;2023-03-21T02:52:23;9.50;99.90
21823;DHT22;11074;48.596;9.238;2023-03-21T02:54:52;9.50;99.90
21823;DHT22;11074;48.596;9.238;2023-03-21T02:57:21;9.50;99.90
21823;DHT22;11074;48.596;9.238;2023-03-21T02:59:49;9.40;99.90
21823;DHT22;11074;48.596;9.238;2023-03-21T03:02:20;9.40;99.90
21823;DHT22;11074;48.596;9.238;2023-03-21T03:04:49;9.40;99.90
21823;DHT22;11074;48.596;9.238;2023-03-21T03:07:36;9.30;99.90
21823;DHT22;11074;48.596;9.238;2023-03-21T03:19:00;9.30;99.90
21823;DHT22;11074;48.596;9.238;2023-03-21T03:21:50;9.30;99.90
21823;DHT22;11074;48.596;9.238;2023-03-21T03:24:29;9.30;99.90
21823;DHT22;11074;48.596;9.238;2023-03-21T03:27:26;9.30;99.90
21823;DHT22;11074;48.596;9.238;2023-03-21T03:29:58;9.20;99.90
21823;DHT22;11074;48.596;9.238;2023-03-21T03:32:35;9.20;99.90
21823;DHT22;11074;48.596;9.238;2023-03-21T03:35:10;9.30;99.90
21823;DHT22;11074;48.596;9.238;2023-03-21T03:37:39;9.30;99.90
21823;DHT22;11074;48.596;9.238;2023-03-21T03:40:15;9.30;99.90
21823;DHT22;11074;48.596;9.238;2023-03-21T03:42:53;9.30;99.90
21823;DHT22;11074;48.596;9.238;2023-03-21T03:45:33;9.30;99.90
21823;DHT22;11074;48.596;9.238;2023-03-21T03:48:14;9.20;99.90
21823;DHT22;11074;48.596;9.238;2023-03-21T03:53:37;9.20;99.90
21823;DHT22;11074;48.596;9.238;2023-03-21T03:56:08;9.20;99.90
21823;DHT22;11074;48.596;9.238;2023-03-21T03:58:36;9.20;99.90
21823;DHT22;11074;48.596;9.238;2023-03-21T04:01:04;9.10;99.90
21823;DHT22;11074;48.596;9.238;2023-03-21T04:03:32;9.10;99.90
21823;DHT22;11074;48.596;9.238;2023-03-21T04:06:01;9.10;99.90
21823;DHT22;11074;48.596;9.238;2023-03-21T04:08:28;9.10;99.90
21823;DHT22;11074;48.596;9.238;2023-03-21T04:10:55;9.10;99.90
21823;DHT22;11074;48.596;9.238;2023-03-21T04:13:21;9.10;99.90
21823;DHT22;11074;48.596;9.238;2023-03-21T04:15:47;9.10;99.90
21823;DHT22;11074;48.596;9.238;2023-03-21T04:18:12;9.10;99.90
21823;DHT22;11074;48.596;9.238;2023-03-21T04:20:38;9.10;99.90
21823;DHT22;11074;48.596;9.238;2023-03-21T04:23:04;9.10;99.90
21823;DHT22;11074;48.596;9.238;2023-03-21T04:25:33;9.10;99.90
21823;DHT22;11074;48.596;9.238;2023-03-21T04:28:00;9.10;99.90
21823;DHT22;11074;48.596;9.238;2023-03-21T04:30:25;9.10;99.90
21823;DHT22;11074;48.596;9.238;2023-03-21T04:32:51;9.10;99.90
21823;DHT22;11074;48.596;9.238;2023-03-21T04:35:26;9.10;99.90
21823;DHT22;11074;48.596;9.238;2023-03-21T04:37:53;9.00;99.90
21823;DHT22;11074;48.596;9.238;2023-03-21T04:40:19;9.10;99.90
21823;DHT22;11074;48.596;9.238;2023-03-21T04:42:46;9.00;99.90
21823;DHT22;11074;48.596;9.238;2023-03-21T04:45:13;9.00;99.90
21823;DHT22;11074;48.596;9.238;2023-03-21T04:47:40;8.90;99.90
21823;DHT22;11074;48.596;9.238;2023-03-21T04:50:07;8.90;99.90
21823;DHT22;11074;48.596;9.238;2023-03-21T04:52:35;8.80;99.90
21823;DHT22;11074;48.596;9.238;2023-03-21T04:55:00;8.80;99.90
21823;DHT22;11074;48.596;9.238;2023-03-21T04:57:27;8.80;99.90
21823;DHT22;11074;48.596;9.238;2023-03-21T04:59:52;8.80;99.90
21823;DHT22;11074;48.596;9.238;2023-03-21T05:02:18;8.70;99.90
21823;DHT22;11074;48.596;9.238;2023-03-21T05:04:44;8.70;99.90
21823;DHT22;11074;48.596;9.238;2023-03-21T05:07:10;8.60;99.90
21823;DHT22;11074;48.596;9.238;2023-03-21T05:09:36;8.60;99.90
21823;DHT22;11074;48.596;9.238;2023-03-21T05:12:02;8.60;99.90
21823;DHT22;11074;48.596;9.238;2023-03-21T05:14:29;8.60;99.90
21823;DHT22;11074;48.596;9.238;2023-03-21T05:16:55;8.60;99.90
21823;DHT22;11074;48.596;9.238;2023-03-21T05:19:29;8.60;99.90
21823;DHT22;11074;48.596;9.238;2023-03-21T05:22:09;8.50;99.90
21823;DHT22;11074;48.596;9.238;2023-03-21T05:24:36;8.50;99.90
21823;DHT22;11074;48.596;9.238;2023-03-21T05:27:04;8.50;99.90
21823;DHT22;11074;48.596;9.238;2023-03-21T05:29:31;8.60;99.90
21823;DHT22;11074;48.596;9.238;2023-03-21T05:31:58;8.60;99.90
21823;DHT22;11074;48.596;9.238;2023-03-21T05:34:25;8.60;99.90
21823;DHT22;11074;48.596;9.238;2023-03-21T05:36:51;8.60;99.90
21823;DHT22;11074;48.596;9.238;2023-03-21T05:39:17;8.60;99.90
21823;DHT22;11074;48.596;9.238;2023-03-21T05:41:44;8.60;99.90
21823;DHT22;11074;48.596;9.238;2023-03-21T05:44:10;8.60;99.90
21823;DHT22;11074;48.596;9.238;2023-03-21T05:46:36;8.60;99.90
21823;DHT22;11074;48.596;9.238;2023-03-21T05:49:01;8.60;99.90
21823;DHT22;11074;48.596;9.238;2023-03-21T05:51:27;8.60;99.90
21823;DHT22;11074;48.596;9.238;2023-03-21T05:53:53;8.60;99.90
21823;DHT22;11074;48.596;9.238;2023-03-21T05:56:19;8.60;99.90
21823;DHT22;11074;48.596;9.238;2023-03-21T05:58:44;8.50;99.90
21823;DHT22;11074;48.596;9.238;2023-03-21T06:01:10;8.60;99.90
21823;DHT22;11074;48.596;9.238;2023-03-21T06:03:36;8.70;99.90
21823;DHT22;11074;48.596;9.238;2023-03-21T06:06:02;8.60;99.90
21823;DHT22;11074;48.596;9.238;2023-03-21T06:08:28;8.70;99.90
21823;DHT22;11074;48.596;9.238;2023-03-21T06:10:54;8.70;99.90
21823;DHT22;11074;48.596;9.238;2023-03-21T06:13:20;8.70;99.90
21823;DHT22;11074;48.596;9.238;2023-03-21T06:15:46;8.70;99.90
21823;DHT22;11074;48.596;9.238;2023-03-21T06:18:11;8.70;99.90
21823;DHT22;11074;48.596;9.238;2023-03-21T06:20:38;8.70;99.90
21823;DHT22;11074;48.596;9.238;2023-03-21T06:23:04;8.60;99.90
21823;DHT22;11074;48.596;9.238;2023-03-21T06:25:30;8.70;99.90
21823;DHT22;11074;48.596;9.238;2023-03-21T06:27:55;8.70;99.90
21823;DHT22;11074;48.596;9.238;2023-03-21T06:30:21;8.70;99.90
21823;DHT22;11074;48.596;9.238;2023-03-21T06:32:47;8.70;99.90
21823;DHT22;11074;48.596;9.238;2023-03-21T06:35:12;8.70;99.90
21823;DHT22;11074;48.596;9.238;2023-03-21T06:37:38;8.70;99.90
21823;DHT22;11074;48.596;9.238;2023-03-21T06:40:04;8.70;99.90
21823;DHT22;11074;48.596;9.238;2023-03-21T06:42:32;8.70;99.90
21823;DHT22;11074;48.596;9.238;2023-03-21T06:44:57;8.70;99.90
21823;DHT22;11074;48.596;9.238;2023-03-21T06:47:23;8.70;99.90
21823;DHT22;11074;48.596;9.238;2023-03-21T06:49:49;8.70;99.90
21823;DHT22;11074;48.596;9.238;2023-03-21T06:52:14;8.80;99.90
21823;DHT22;11074;48.596;9.238;2023-03-21T06:54:40;8.90;99.90
21823;DHT22;11074;48.596;9.238;2023-03-21T06:57:06;8.90;99.90
21823;DHT22;11074;48.596;9.238;2023-03-21T06:59:32;9.00;99.90
21823;DHT22;11074;48.596;9.238;2023-03-21T07:01:57;9.10;99.90
21823;DHT22;11074;48.596;9.238;2023-03-21T07:04:23;9.10;99.90
21823;DHT22;11074;48.596;9.238;2023-03-21T07:06:49;9.20;99.90
21823;DHT22;11074;48.596;9.238;2023-03-21T07:09:14;9.20;99.90
21823;DHT22;11074;48.596;9.238;2023-03-21T07:11:42;9.30;99.90
21823;DHT22;11074;48.596;9.238;2023-03-21T07:14:07;9.30;99.90
21823;DHT22;11074;48.596;9.238;2023-03-21T07:16:33;9.40;99.90
21823;DHT22;11074;48.596;9.238;2023-03-21T07:18:59;9.40;99.90
21823;DHT22;11074;48.596;9.238;2023-03-21T07:21:25;9.50;99.90
21823;DHT22;11074;48.596;9.238;2023-03-21T07:23:50;9.50;99.90
21823;DHT22;11074;48.596;9.238;2023-03-21T07:26:16;9.50;99.90
21823;DHT22;11074;48.596;9.238;2023-03-21T07:28:43;9.50;99.90
21823;DHT22;11074;48.596;9.238;2023-03-21T07:31:14;9.60;99.90
21823;DHT22;11074;48.596;9.238;2023-03-21T07:33:41;9.70;99.90
21823;DHT22;11074;48.596;9.238;2023-03-21T07:36:14;9.70;99.90
21823;DHT22;11074;48.596;9.238;2023-03-21T07:38:42;9.80;99.90
21823;DHT22;11074;48.596;9.238;2023-03-21T07:41:09;9.90;99.90
21823;DHT22;11074;48.596;9.238;2023-03-21T07:43:35;9.90;99.90
21823;DHT22;11074;48.596;9.238;2023-03-21T07:46:01;10.00;99.90
21823;DHT22;11074;48.596;9.238;2023-03-21T07:48:28;10.10;99.90
21823;DHT22;11074;48.596;9.238;2023-03-21T07:50:54;10.10;99.90
21823;DHT22;11074;48.596;9.238;2023-03-21T07:53:20;10.20;99.90
21823;DHT22;11074;48.596;9.238;2023-03-21T07:55:50;10.30;99.90
21823;DHT22;11074;48.596;9.238;2023-03-21T07:58:19;10.40;99.90
21823;DHT22;11074;48.596;9.238;2023-03-21T08:00:46;10.50;99.90
21823;DHT22;11074;48.596;9.238;2023-03-21T08:03:12;10.60;99.90
21823;DHT22;11074;48.596;9.238;2023-03-21T08:05:37;10.60;99.90
21823;DHT22;11074;48.596;9.238;2023-03-21T08:08:05;10.60;99.90
21823;DHT22;11074;48.596;9.238;2023-03-21T08:10:33;10.60;99.90
21823;DHT22;11074;48.596;9.238;2023-03-21T08:12:59;10.70;99.90
21823;DHT22;11074;48.596;9.238;2023-03-21T08:15:25;10.80;99.90
21823;DHT22;11074;48.596;9.238;2023-03-21T08:17:50;10.80;99.90
21823;DHT22;11074;48.596;9.238;2023-03-21T08:20:19;10.90;99.90
21823;DHT22;11074;48.596;9.238;2023-03-21T08:22:46;10.90;99.90
21823;DHT22;11074;48.596;9.238;2023-03-21T08:25:15;11.00;99.90
21823;DHT22;11074;48.596;9.238;2023-03-21T08:27:44;11.10;99.90
21823;DHT22;11074;48.596;9.238;2023-03-21T08:30:12;11.20;99.90
21823;DHT22;11074;48.596;9.238;2023-03-21T08:32:41;11.10;99.90
21823;DHT22;11074;48.596;9.238;2023-03-21T08:35:09;11.10;99.90
21823;DHT22;11074;48.596;9.238;2023-03-21T08:37:37;11.20;99.90
21823;DHT22;11074;48.596;9.238;2023-03-21T08:40:04;11.30;99.90
21823;DHT22;11074;48.596;9.238;2023-03-21T08:42:33;11.40;99.90
21823;DHT22;11074;48.596;9.238;2023-03-21T08:44:59;11.50;99.90
21823;DHT22;11074;48.596;9.238;2023-03-21T08:47:25;11.60;99.90
21823;DHT22;11074;48.596;9.238;2023-03-21T08:49:51;11.60;99.90
21823;DHT22;11074;48.596;9.238;2023-03-21T08:52:16;11.60;99.90
21823;DHT22;11074;48.596;9.238;2023-03-21T08:54:42;11.70;99.90
21823;DHT22;11074;48.596;9.238;2023-03-21T08:57:09;11.80;99.90
21823;DHT22;11074;48.596;9.238;2023-03-21T08:59:36;11.80;99.90
21823;DHT22;11074;48.596;9.238;2023-03-21T09:02:02;11.90;99.90
21823;DHT22;11074;48.596;9.238;2023-03-21T09:04:28;12.00;99.90
21823;DHT22;11074;48.596;9.238;2023-03-21T09:06:55;12.00;99.90
21823;DHT22;11074;48.596;9.238;2023-03-21T09:09:23;12.20;99.90
21823;DHT22;11074;48.596;9.238;2023-03-21T09:11:48;12.30;99.90
21823;DHT22;11074;48.596;9.238;2023-03-21T09:14:14;12.40;99.90
21823;DHT22;11074;48.596;9.238;2023-03-21T09:16:40;12.60;99.90
21823;DHT22;11074;48.596;9.238;2023-03-21T09:19:06;12.70;99.90
21823;DHT22;11074;48.596;9.238;2023-03-21T09:21:33;12.80;99.90
21823;DHT22;11074;48.596;9.238;2023-03-21T09:24:00;12.90;99.90
21823;DHT22;11074;48.596;9.238;2023-03-21T09:26:27;13.00;99.90
21823;DHT22;11074;48.596;9.238;2023-03-21T09:28:54;13.10;99.90
21823;DHT22;11074;48.596;9.238;2023-03-21T09:31:20;13.10;99.90
21823;DHT22;11074;48.596;9.238;2023-03-21T09:33:51;13.00;99.90
21823;DHT22;11074;48.596;9.238;2023-03-21T09:36:18;12.90;99.90
21823;DHT22;11074;48.596;9.238;2023-03-21T09:38:46;13.00;99.90
21823;DHT22;11074;48.596;9.238;2023-03-21T09:47:28;13.30;99.90
21823;DHT22;11074;48.596;9.238;2023-03-21T09:50:08;13.30;99.90
21823;DHT22;11074;48.596;9.238;2023-03-21T09:52:52;13.30;99.90
21823;DHT22;11074;48.596;9.238;2023-03-21T09:55:27;13.40;99.90
21823;DHT22;11074;48.596;9.238;2023-03-21T10:00:39;13.70;99.90
21823;DHT22;11074;48.596;9.238;2023-03-21T10:03:21;13.80;99.90
21823;DHT22;11074;48.596;9.238;2023-03-21T10:05:53;13.80;99.90
21823;DHT22;11074;48.596;9.238;2023-03-21T10:08:27;13.80;99.90
21823;DHT22;11074;48.596;9.238;2023-03-21T10:11:06;13.90;99.90
21823;DHT22;11074;48.596;9.238;2023-03-21T10:13:40;14.00;99.90
21823;DHT22;11074;48.596;9.238;2023-03-21T10:16:16;14.10;99.90
21823;DHT22;11074;48.596;9.238;2023-03-21T10:18:48;14.10;99.90
21823;DHT22;11074;48.596;9.238;2023-03-21T10:21:26;14.20;99.90
21823;DHT22;11074;48.596;9.238;2023-03-21T10:23:54;14.30;99.90
21823;DHT22;11074;48.596;9.238;2023-03-21T10:26:24;14.30;99.90
21823;DHT22;11074;48.596;9.238;2023-03-21T10:28:58;14.30;99.90
21823;DHT22;11074;48.596;9.238;2023-03-21T10:31:27;14.50;99.90
21823;DHT22;11074;48.596;9.238;2023-03-21T10:34:00;14.60;99.90
21823;DHT22;11074;48.596;9.238;2023-03-21T10:36:31;14.60;99.90
21823;DHT22;11074;48.596;9.238;2023-03-21T10:39:05;14.70;99.90
21823;DHT22;11074;48.596;9.238;2023-03-21T10:41:39;14.70;99.90
21823;DHT22;11074;48.596;9.238;2023-03-21T10:44:10;14.80;99.90
21823;DHT22;11074;48.596;9.238;2023-03-21T10:46:56;15.00;99.90
21823;DHT22;11074;48.596;9.238;2023-03-21T10:49:24;15.00;99.90
21823;DHT22;11074;48.596;9.238;2023-03-21T10:51:53;15.10;99.90
21823;DHT22;11074;48.596;9.238;2023-03-21T10:54:27;15.20;99.90
21823;DHT22;11074;48.596;9.238;2023-03-21T10:57:08;15.20;99.90
21823;DHT22;11074;48.596;9.238;2023-03-21T10:59:54;15.30;99.90
21823;DHT22;11074;48.596;9.238;2023-03-21T11:02:32;15.40;99.90
21823;DHT22;11074;48.596;9.238;2023-03-21T11:05:20;15.50;99.90
21823;DHT22;11074;48.596;9.238;2023-03-21T11:08:04;15.60;99.90
21823;DHT22;11074;48.596;9.238;2023-03-21T11:10:37;15.70;99.90
21823;DHT22;11074;48.596;9.238;2023-03-21T11:13:26;15.80;99.90
21823;DHT22;11074;48.596;9.238;2023-03-21T11:16:09;15.90;99.90
21823;DHT22;11074;48.596;9.238;2023-03-21T11:18:42;15.90;99.90
21823;DHT22;11074;48.596;9.238;2023-03-21T11:21:11;16.00;99.90
21823;DHT22;11074;48.596;9.238;2023-03-21T11:23:47;16.10;99.90
21823;DHT22;11074;48.596;9.238;2023-03-21T11:26:21;16.20;99.90
21823;DHT22;11074;48.596;9.238;2023-03-21T11:28:52;16.10;99.90
21823;DHT22;11074;48.596;9.238;2023-03-21T11:31:19;16.00;99.90
21823;DHT22;11074;48.596;9.238;2023-03-21T11:33:55;15.90;99.90
21823;DHT22;11074;48.596;9.238;2023-03-21T11:36:31;15.80;99.90
21823;DHT22;11074;48.596;9.238;2023-03-21T11:39:34;15.60;99.90
21823;DHT22;11074;48.596;9.238;2023-03-21T11:42:04;15.70;99.90
21823;DHT22;11074;48.596;9.238;2023-03-21T11:45:03;15.70;99.90
21823;DHT22;11074;48.596;9.238;2023-03-21T11:47:40;15.80;99.90
21823;DHT22;11074;48.596;9.238;2023-03-21T11:53:21;15.90;99.90
21823;DHT22;11074;48.596;9.238;2023-03-21T12:25:10;16.20;99.90
21823;DHT22;11074;48.596;9.238;2023-03-21T12:30:50;16.20;99.90
21823;DHT22;11074;48.596;9.238;2023-03-21T12:33:55;16.20;99.90
21823;DHT22;11074;48.596;9.238;2023-03-21T12:36:51;16.30;99.90
21823;DHT22;11074;48.596;9.238;2023-03-21T12:39:34;16.30;99.90
21823;DHT22;11074;48.596;9.238;2023-03-21T12:44:46;16.30;99.90
21823;DHT22;11074;48.596;9.238;2023-03-21T12:47:34;16.30;99.90
21823;DHT22;11074;48.596;9.238;2023-03-21T12:50:14;16.30;99.90
21823;DHT22;11074;48.596;9.238;2023-03-21T12:52:53;16.20;99.90
21823;DHT22;11074;48.596;9.238;2023-03-21T12:55:28;16.10;99.90
21823;DHT22;11074;48.596;9.238;2023-03-21T12:58:13;16.10;99.90
21823;DHT22;11074;48.596;9.238;2023-03-21T13:00:46;16.10;99.90
21823;DHT22;11074;48.596;9.238;2023-03-21T13:03:25;16.20;99.90
21823;DHT22;11074;48.596;9.238;2023-03-21T13:06:01;16.40;99.90
21823;DHT22;11074;48.596;9.238;2023-03-21T13:08:51;16.50;99.90
21823;DHT22;11074;48.596;9.238;2023-03-21T13:11:26;16.50;99.90
21823;DHT22;11074;48.596;9.238;2023-03-21T13:22:01;17.30;99.90
21823;DHT22;11074;48.596;9.238;2023-03-21T13:24:40;17.50;99.90
21823;DHT22;11074;48.596;9.238;2023-03-21T13:27:27;17.70;99.90
21823;DHT22;11074;48.596;9.238;2023-03-21T13:32:40;18.00;99.90
21823;DHT22;11074;48.596;9.238;2023-03-21T13:37:34;18.10;99.90
21823;DHT22;11074;48.596;9.238;2023-03-21T13:40:07;18.00;99.90
21823;DHT22;11074;48.596;9.238;2023-03-21T13:42:57;18.00;99.90
21823;DHT22;11074;48.596;9.238;2023-03-21T13:45:30;17.80;99.90
21823;DHT22;11074;48.596;9.238;2023-03-21T13:48:31;17.80;99.90
21823;DHT22;11074;48.596;9.238;2023-03-21T13:51:06;17.70;99.90
21823;DHT22;11074;48.596;9.238;2023-03-21T13:53:35;17.80;99.90
21823;DHT22;11074;48.596;9.238;2023-03-21T13:56:19;17.90;99.90
21823;DHT22;11074;48.596;9.238;2023-03-21T14:01:40;17.70;99.90
21823;DHT22;11074;48.596;9.238;2023-03-21T14:04:17;17.50;99.90
21823;DHT22;11074;48.596;9.238;2023-03-21T14:09:51;17.20;99.90
21823;DHT22;11074;48.596;9.238;2023-03-21T14:12:23;17.10;99.90
21823;DHT22;11074;48.596;9.238;2023-03-21T14:15:00;17.00;99.90
21823;DHT22;11074;48.596;9.238;2023-03-21T14:17:32;16.90;99.90
21823;DHT22;11074;48.596;9.238;2023-03-21T14:20:12;16.80;99.90
21823;DHT22;11074;48.596;9.238;2023-03-21T14:22:39;16.90;99.90
21823;DHT22;11074;48.596;9.238;2023-03-21T14:25:11;16.90;99.90
21823;DHT22;11074;48.596;9.238;2023-03-21T14:27:41;16.90;99.90
21823;DHT22;11074;48.596;9.238;2023-03-21T14:30:26;16.90;99.90
21823;DHT22;11074;48.596;9.238;2023-03-21T14:32:58;16.90;99.90
21823;DHT22;11074;48.596;9.238;2023-03-21T14:35:31;16.90;99.90
21823;DHT22;11074;48.596;9.238;2023-03-21T14:38:04;16.90;99.90
21823;DHT22;11074;48.596;9.238;2023-03-21T14:40:35;17.00;99.90
21823;DHT22;11074;48.596;9.238;2023-03-21T14:43:05;17.10;99.90
21823;DHT22;11074;48.596;9.238;2023-03-21T14:45:33;17.10;99.90
21823;DHT22;11074;48.596;9.238;2023-03-21T14:50:51;17.10;99.90
21823;DHT22;11074;48.596;9.238;2023-03-21T14:53:22;17.10;99.90
21823;DHT22;11074;48.596;9.238;2023-03-21T14:55:59;17.00;99.90
21823;DHT22;11074;48.596;9.238;2023-03-21T14:58:29;17.00;99.90
21823;DHT22;11074;48.596;9.238;2023-03-21T15:00:59;17.00;99.90
21823;DHT22;11074;48.596;9.238;2023-03-21T15:03:29;17.00;99.90
21823;DHT22;11074;48.596;9.238;2023-03-21T15:05:56;17.00;99.90
21823;DHT22;11074;48.596;9.238;2023-03-21T15:08:25;17.00;99.90
21823;DHT22;11074;48.596;9.238;2023-03-21T15:11:04;17.00;99.90
21823;DHT22;11074;48.596;9.238;2023-03-21T15:14:07;17.00;99.90
21823;DHT22;11074;48.596;9.238;2023-03-21T15:16:27;17.10;99.90
21823;DHT22;11074;48.596;9.238;2023-03-21T15:18:54;17.20;99.90
21823;DHT22;11074;48.596;9.238;2023-03-21T15:21:26;17.20;99.90
21823;DHT22;11074;48.596;9.238;2023-03-21T15:24:06;17.30;99.90
21823;DHT22;11074;48.596;9.238;2023-03-21T15:26:39;17.40;99.90
21823;DHT22;11074;48.596;9.238;2023-03-21T15:29:10;17.50;99.90
21823;DHT22;11074;48.596;9.238;2023-03-21T15:31:39;17.70;99.90
21823;DHT22;11074;48.596;9.238;2023-03-21T15:34:06;17.70;99.90
21823;DHT22;11074;48.596;9.238;2023-03-21T15:36:45;17.60;99.90
21823;DHT22;11074;48.596;9.238;2023-03-21T15:39:15;17.70;99.90
21823;DHT22;11074;48.596;9.238;2023-03-21T15:42:03;17.60;99.90
21823;DHT22;11074;48.596;9.238;2023-03-21T15:44:32;17.60;99.90
21823;DHT22;11074;48.596;9.238;2023-03-21T15:46:59;17.40;99.90
21823;DHT22;11074;48.596;9.238;2023-03-21T15:49:32;17.30;99.90
21823;DHT22;11074;48.596;9.238;2023-03-21T15:52:13;17.10;99.90
21823;DHT22;11074;48.596;9.238;2023-03-21T15:54:43;16.90;99.90
21823;DHT22;11074;48.596;9.238;2023-03-21T15:57:23;16.80;99.90
21823;DHT22;11074;48.596;9.238;2023-03-21T15:59:54;16.70;99.90
21823;DHT22;11074;48.596;9.238;2023-03-21T16:02:28;16.60;99.90
21823;DHT22;11074;48.596;9.238;2023-03-21T16:04:56;16.60;99.90
21823;DHT22;11074;48.596;9.238;2023-03-21T16:07:23;16.50;99.90
21823;DHT22;11074;48.596;9.238;2023-03-21T16:09:49;16.40;99.90
21823;DHT22;11074;48.596;9.238;2023-03-21T16:12:21;16.40;99.90
21823;DHT22;11074;48.596;9.238;2023-03-21T16:14:49;16.30;99.90
21823;DHT22;11074;48.596;9.238;2023-03-21T16:17:34;16.30;99.90
21823;DHT22;11074;48.596;9.238;2023-03-21T16:20:19;16.20;99.90
21823;DHT22;11074;48.596;9.238;2023-03-21T16:22:48;16.10;99.90
21823;DHT22;11074;48.596;9.238;2023-03-21T16:25:14;16.10;99.90
21823;DHT22;11074;48.596;9.238;2023-03-21T16:27:40;16.00;99.90
21823;DHT22;11074;48.596;9.238;2023-03-21T16:30:07;15.90;99.90
21823;DHT22;11074;48.596;9.238;2023-03-21T16:32:35;15.90;99.90
21823;DHT22;11074;48.596;9.238;2023-03-21T16:35:01;15.90;99.90
21823;DHT22;11074;48.596;9.238;2023-03-21T16:37:27;15.80;99.90
21823;DHT22;11074;48.596;9.238;2023-03-21T16:39:52;15.80;99.90
21823;DHT22;11074;48.596;9.238;2023-03-21T16:42:18;15.80;99.90
21823;DHT22;11074;48.596;9.238;2023-03-21T16:44:44;15.80;99.90
21823;DHT22;11074;48.596;9.238;2023-03-21T16:47:14;15.70;99.90
21823;DHT22;11074;48.596;9.238;2023-03-21T16:49:45;15.60;99.90
21823;DHT22;11074;48.596;9.238;2023-03-21T16:52:12;15.60;99.90
21823;DHT22;11074;48.596;9.238;2023-03-21T16:54:40;15.40;99.90
21823;DHT22;11074;48.596;9.238;2023-03-21T16:57:14;15.30;99.90
21823;DHT22;11074;48.596;9.238;2023-03-21T16:59:46;15.30;99.90
21823;DHT22;11074;48.596;9.238;2023-03-21T17:02:14;15.20;99.90
21823;DHT22;11074;48.596;9.238;2023-03-21T17:04:41;15.10;99.90
21823;DHT22;11074;48.596;9.238;2023-03-21T17:07:11;15.00;99.90
21823;DHT22;11074;48.596;9.238;2023-03-21T17:09:41;14.90;99.90
21823;DHT22;11074;48.596;9.238;2023-03-21T17:12:12;14.80;99.90
21823;DHT22;11074;48.596;9.238;2023-03-21T17:14:41;14.70;99.90
21823;DHT22;11074;48.596;9.238;2023-03-21T17:17:13;14.70;99.90
21823;DHT22;11074;48.596;9.238;2023-03-21T17:19:41;14.60;99.90
21823;DHT22;11074;48.596;9.238;2023-03-21T17:22:07;14.60;99.90
21823;DHT22;11074;48.596;9.238;2023-03-21T17:24:35;14.50;99.90
21823;DHT22;11074;48.596;9.238;2023-03-21T17:27:02;14.50;99.90
21823;DHT22;11074;48.596;9.238;2023-03-21T17:29:29;14.40;99.90
21823;DHT22;11074;48.596;9.238;2023-03-21T17:31:54;14.30;99.90
21823;DHT22;11074;48.596;9.238;2023-03-21T17:34:20;14.30;99.90
21823;DHT22;11074;48.596;9.238;2023-03-21T17:36:46;14.20;99.90
21823;DHT22;11074;48.596;9.238;2023-03-21T17:39:24;14.20;99.90
21823;DHT22;11074;48.596;9.238;2023-03-21T17:41:53;14.10;99.90